Time;durP1;ratioP1;P1;durP2;ratioP2;P2;SDS_P1;SDS_P2;PMS_P1;PMS_P2;Temp;Humidity;BMP_temperature;BMP_pressure;BME280_temperature;BME280_humidity;BME280_pressure;Samples;Min_cycle;Max_cycle;Signal;HPM_P1;HPM_P2
2023/04/24 00:01:29;;;;;;;17.07;10.90;;;;;;;8.42;100.00;99869.88;5079201;28;20459;-82
2023/04/24 00:03:58;;;;;;;17.35;11.40;;;;;;;8.42;100.00;99872.59;5095832;28;20067;-82
2023/04/24 00:06:32;;;;;;;14.70;10.18;;;;;;;8.45;100.00;99865.94;5096443;28;20381;-82
2023/04/24 00:09:01;;;;;;;19.60;11.13;;;;;;;8.45;100.00;99857.84;5064161;28;20044;-82
2023/04/24 00:11:27;;;;;;;16.87;11.17;;;;;;;8.40;100.00;99862.00;5079729;28;20063;-82
2023/04/24 00:13:53;;;;;;;21.15;11.48;;;;;;;8.40;100.00;99867.41;5095649;28;20063;-82
2023/04/24 00:16:20;;;;;;;21.38;10.88;;;;;;;8.24;100.00;99865.31;5079275;28;20032;-82
2023/04/24 00:18:48;;;;;;;20.90;11.07;;;;;;;8.17;100.00;99872.66;5095778;28;20032;-82
2023/04/24 00:21:17;;;;;;;23.27;13.35;;;;;;;8.05;100.00;99865.25;5079299;28;20032;-82
2023/04/24 00:23:43;;;;;;;18.57;11.03;;;;;;;8.04;100.00;99862.78;5113653;28;20119;-83
2023/04/24 00:26:09;;;;;;;19.98;12.85;;;;;;;7.99;100.00;99868.03;5095567;28;20031;-83
2023/04/24 00:28:34;;;;;;;29.97;14.50;;;;;;;7.95;100.00;99875.75;5113895;28;20034;-82
2023/04/24 00:30:59;;;;;;;27.00;14.20;;;;;;;7.93;100.00;99869.75;5096020;28;20035;-83
2023/04/24 00:33:25;;;;;;;28.30;15.83;;;;;;;7.86;100.00;99875.19;5079344;28;20035;-82
2023/04/24 00:35:50;;;;;;;33.30;14.80;;;;;;;7.85;100.00;99883.53;5113871;28;20050;-82
2023/04/24 00:38:16;;;;;;;26.57;14.67;;;;;;;7.82;100.00;99878.56;5078814;28;20039;-83
2023/04/24 00:40:41;;;;;;;29.80;15.90;;;;;;;7.80;100.00;99889.59;5078748;28;20055;-83
2023/04/24 00:43:07;;;;;;;31.40;16.02;;;;;;;7.80;100.00;99897.69;5095381;28;20112;-83
2023/04/24 00:45:32;;;;;;;27.13;13.67;;;;;;;7.83;100.00;99893.75;5095448;28;20028;-83
2023/04/24 00:48:00;;;;;;;32.20;16.80;;;;;;;7.80;100.00;99886.06;5096014;28;20023;-83
2023/04/24 00:50:26;;;;;;;31.13;16.10;;;;;;;7.76;100.00;99891.06;5095476;28;20058;-83
2023/04/24 00:52:52;;;;;;;29.85;14.13;;;;;;;7.71;100.00;99878.25;5096169;28;20108;-82
2023/04/24 00:55:18;;;;;;;34.83;16.65;;;;;;;7.74;100.00;99882.38;5062011;28;20050;-82
2023/04/24 00:57:45;;;;;;;36.20;17.43;;;;;;;7.70;100.00;99879.28;5095395;28;20454;-82
2023/04/24 01:00:14;;;;;;;35.83;18.45;;;;;;;7.73;100.00;99883.41;5095272;28;20031;-82
2023/04/24 01:02:45;;;;;;;31.77;15.88;;;;;;;7.72;100.00;99881.75;5095796;28;20399;-82
2023/04/24 01:05:15;;;;;;;35.17;15.93;;;;;;;7.75;100.00;99875.94;5096208;28;20058;-82
2023/04/24 01:07:45;;;;;;;29.85;17.35;;;;;;;7.75;100.00;99880.50;5113732;28;20463;-83
2023/04/24 01:10:12;;;;;;;35.53;16.50;;;;;;;7.71;100.00;99875.53;5098195;28;20030;-82
2023/04/24 01:12:37;;;;;;;36.47;17.13;;;;;;;7.69;100.00;99874.94;5117304;28;20558;-82
2023/04/24 01:15:03;;;;;;;32.08;15.30;;;;;;;7.64;100.00;99882.03;5116863;28;20042;-82
2023/04/24 01:17:29;;;;;;;33.58;17.92;;;;;;;7.65;100.00;99886.41;5099335;28;20023;-82
2023/04/24 01:19:56;;;;;;;34.55;18.40;;;;;;;7.57;100.00;99876.69;5116840;28;20032;-82
2023/04/24 01:22:22;;;;;;;36.95;19.35;;;;;;;7.56;100.00;99877.75;5116700;28;20035;-82
2023/04/24 01:24:47;;;;;;;39.17;19.77;;;;;;;7.52;100.00;99871.13;5081426;28;20462;-82
2023/04/24 01:27:13;;;;;;;43.33;19.35;;;;;;;7.54;100.00;99879.81;5081475;28;20122;-82
2023/04/24 01:29:39;;;;;;;40.20;19.40;;;;;;;7.57;100.00;99884.78;5098471;28;20486;-82
2023/04/24 01:32:05;;;;;;;39.00;19.80;;;;;;;7.53;100.00;99879.00;5098516;28;20096;-83
2023/04/24 01:34:31;;;;;;;44.67;21.17;;;;;;;7.49;100.00;99876.97;5098375;28;20479;-83
2023/04/24 01:36:56;;;;;;;44.47;22.85;;;;;;;7.46;100.00;99889.03;5098435;28;20033;-82
2023/04/24 01:39:25;;;;;;;48.00;22.00;;;;;;;7.45;100.00;99873.88;5098688;28;20035;-82
2023/04/24 01:41:50;;;;;;;49.45;22.58;;;;;;;7.43;100.00;99870.56;5082441;28;20024;-82
2023/04/24 01:44:17;;;;;;;52.50;24.43;;;;;;;7.46;100.00;99882.81;5116356;28;20391;-82
2023/04/24 01:46:42;;;;;;;52.45;22.00;;;;;;;7.45;100.00;99884.66;5116667;28;20110;-82
2023/04/24 01:49:08;;;;;;;61.92;25.63;;;;;;;7.41;100.00;99888.03;5098004;28;20122;-82
2023/04/24 01:51:33;;;;;;;51.33;25.60;;;;;;;7.44;100.00;99879.47;5117053;28;20081;-82
2023/04/24 01:53:59;;;;;;;47.03;23.17;;;;;;;7.40;100.00;99881.81;5098806;28;20031;-82
2023/04/24 01:56:25;;;;;;;53.93;26.50;;;;;;;7.37;100.00;99887.66;5116108;28;20028;-82
2023/04/24 01:58:53;;;;;;;52.95;26.38;;;;;;;7.36;100.00;99884.09;5116654;28;20119;-82
2023/04/24 02:01:20;;;;;;;51.55;24.30;;;;;;;7.34;100.00;99886.19;5116007;28;20063;-81
2023/04/24 02:03:45;;;;;;;57.13;26.15;;;;;;;7.31;100.00;99907.41;5098038;28;20077;-82
2023/04/24 02:06:11;;;;;;;54.67;25.50;;;;;;;7.33;100.00;99884.53;5080786;28;20027;-81
2023/04/24 02:08:36;;;;;;;49.73;25.73;;;;;;;7.31;100.00;99894.72;5116026;28;20381;-81
2023/04/24 02:11:02;;;;;;;46.23;22.83;;;;;;;7.26;100.00;99891.84;5081178;28;20028;-81
2023/04/24 02:13:28;;;;;;;51.83;24.00;;;;;;;7.24;100.00;99885.84;5098174;28;20042;-81
2023/04/24 02:15:53;;;;;;;60.15;27.70;;;;;;;7.21;100.00;99894.38;5080419;28;20475;-82
2023/04/24 02:18:18;;;;;;;50.43;24.23;;;;;;;7.23;100.00;99908.47;5080545;28;20027;-81
2023/04/24 02:20:44;;;;;;;56.40;25.10;;;;;;;7.20;100.00;99904.34;5098171;28;20019;-81
2023/04/24 02:23:09;;;;;;;57.97;25.20;;;;;;;7.20;100.00;99907.06;5081120;28;20048;-81
2023/04/24 02:25:35;;;;;;;58.58;26.15;;;;;;;7.20;100.00;99906.19;5097307;28;20103;-81
2023/04/24 02:28:00;;;;;;;55.97;25.40;;;;;;;7.17;100.00;99893.97;5080440;28;20031;-82
2023/04/24 02:30:26;;;;;;;59.90;25.03;;;;;;;7.14;100.00;99888.19;5097348;28;20027;-81
2023/04/24 02:32:51;;;;;;;57.13;24.53;;;;;;;7.18;100.00;99886.72;5097336;28;20065;-82
2023/04/24 02:35:17;;;;;;;63.80;26.40;;;;;;;7.16;100.00;99907.66;5097326;28;20169;-81
2023/04/24 02:37:42;;;;;;;59.78;25.23;;;;;;;7.14;100.00;99926.78;5080206;28;20376;-81
2023/04/24 02:40:08;;;;;;;60.07;26.50;;;;;;;7.14;100.00;99889.00;5080336;28;20038;-81
2023/04/24 02:42:34;;;;;;;66.68;26.17;;;;;;;7.10;100.00;99886.97;5080899;28;20074;-81
2023/04/24 02:45:00;;;;;;;65.65;25.52;;;;;;;7.11;100.00;99900.22;5097092;28;20066;-81
2023/04/24 02:47:25;;;;;;;62.65;25.13;;;;;;;7.09;100.00;99888.84;5097781;28;20042;-81
2023/04/24 02:49:50;;;;;;;65.13;24.63;;;;;;;7.10;100.00;99881.56;5097123;28;20085;-81
2023/04/24 02:52:16;;;;;;;48.33;20.63;;;;;;;7.08;100.00;99897.16;5080179;28;20031;-82
2023/04/24 02:54:42;;;;;;;62.00;24.45;;;;;;;7.06;100.00;99877.63;5096840;28;20480;-81
2023/04/24 02:57:08;;;;;;;74.57;28.00;;;;;;;7.05;100.00;99878.69;5080100;28;20539;-81
2023/04/24 02:59:33;;;;;;;62.35;24.23;;;;;;;7.06;100.00;99877.63;5079872;28;20111;-81
2023/04/24 03:01:59;;;;;;;53.63;22.87;;;;;;;7.05;100.00;99878.69;5079962;28;20042;-81
2023/04/24 03:04:25;;;;;;;67.23;25.10;;;;;;;7.02;100.00;99875.38;5080056;28;20034;-81
2023/04/24 03:06:54;;;;;;;74.03;27.00;;;;;;;7.02;100.00;99878.06;5097178;28;20055;-81
2023/04/24 03:09:20;;;;;;;57.55;24.25;;;;;;;7.03;100.00;99870.81;5096126;28;20130;-81
2023/04/24 03:11:46;;;;;;;69.75;28.45;;;;;;;7.02;100.00;99885.34;5114628;28;20035;-81
2023/04/24 03:14:11;;;;;;;74.17;27.43;;;;;;;7.01;100.00;99878.28;5114591;28;20537;-81
2023/04/24 03:16:36;;;;;;;55.33;23.30;;;;;;;7.03;100.00;99890.53;5063587;28;20046;-81
2023/04/24 03:19:02;;;;;;;60.57;24.10;;;;;;;7.00;100.00;99880.16;5080138;28;20456;-82
2023/04/24 03:21:27;;;;;;;48.70;20.13;;;;;;;7.06;100.00;99896.53;5079545;28;20056;-81
2023/04/24 03:23:55;;;;;;;64.93;24.87;;;;;;;7.01;100.00;99878.28;5096574;28;20040;-82
2023/04/24 03:26:20;;;;;;;58.75;24.42;;;;;;;6.96;100.00;99888.91;5096182;28;20034;-82
2023/04/24 03:28:46;;;;;;;56.50;23.43;;;;;;;6.95;100.00;99889.94;5062996;28;20027;-81
2023/04/24 03:31:11;;;;;;;62.23;22.67;;;;;;;6.94;100.00;99881.03;5079077;28;20452;-81
2023/04/24 03:33:37;;;;;;;60.67;22.90;;;;;;;6.94;100.00;99885.59;5114630;28;20051;-82
2023/04/24 03:36:02;;;;;;;61.43;24.20;;;;;;;6.94;100.00;99882.88;5079175;28;20036;-82
2023/04/24 03:38:28;;;;;;;55.58;23.08;;;;;;;6.95;100.00;99881.84;5096104;28;20035;-81
2023/04/24 03:40:53;;;;;;;53.70;23.17;;;;;;;6.95;100.00;99873.75;5062621;28;20035;-83
2023/04/24 03:43:19;;;;;;;38.07;18.30;;;;;;;6.95;100.00;99876.47;5062835;28;20046;-82
2023/04/24 03:45:44;;;;;;;56.85;22.27;;;;;;;6.95;100.00;99884.56;5096856;28;20043;-81
2023/04/24 03:48:09;;;;;;;50.83;22.80;;;;;;;6.93;100.00;99883.94;5096214;28;20020;-81
2023/04/24 03:50:35;;;;;;;59.57;22.40;;;;;;;6.92;100.00;99874.19;5096545;28;20055;-82
2023/04/24 03:53:00;;;;;;;54.63;22.27;;;;;;;6.93;100.00;99875.84;5079602;28;20503;-82
2023/04/24 03:55:25;;;;;;;54.07;21.23;;;;;;;6.93;100.00;99878.56;5079283;28;20028;-81
2023/04/24 03:57:51;;;;;;;57.00;22.13;;;;;;;6.94;100.00;99875.66;5114163;28;20027;-82
2023/04/24 04:00:16;;;;;;;50.80;20.73;;;;;;;6.95;100.00;99879.16;5062402;28;20411;-82
2023/04/24 04:02:42;;;;;;;55.50;21.50;;;;;;;6.93;100.00;99890.16;5079453;28;20028;-82
2023/04/24 04:05:07;;;;;;;46.80;20.75;;;;;;;6.95;100.00;99873.75;5062475;28;20032;-82
2023/04/24 04:07:33;;;;;;;48.40;19.80;;;;;;;6.95;100.00;99885.41;5095788;28;20097;-82
2023/04/24 04:09:59;;;;;;;47.58;20.42;;;;;;;6.92;100.00;99882.28;5095746;28;20437;-82
2023/04/24 04:12:24;;;;;;;40.87;18.90;;;;;;;6.91;100.00;99881.47;5095840;28;20024;-82
2023/04/24 04:14:50;;;;;;;38.20;18.70;;;;;;;6.90;100.00;99885.19;5062896;28;20451;-82
2023/04/24 04:17:15;;;;;;;45.67;20.40;;;;;;;6.90;100.00;99889.78;5079476;28;20521;-82
2023/04/24 04:19:41;;;;;;;35.60;15.90;;;;;;;6.92;100.00;99895.78;5095877;28;20055;-82
2023/04/24 04:22:07;;;;;;;46.80;21.05;;;;;;;6.87;100.00;99899.13;5062097;28;20028;-82
2023/04/24 04:24:37;;;;;;;46.72;20.42;;;;;;;6.87;100.00;99888.31;5079193;28;20052;-81
2023/04/24 04:27:04;;;;;;;42.87;19.57;;;;;;;6.86;100.00;99894.75;5063219;28;20066;-82
2023/04/24 04:29:31;;;;;;;48.53;21.48;;;;;;;6.85;100.00;99887.72;5096335;28;20059;-81
2023/04/24 04:31:57;;;;;;;40.08;17.67;;;;;;;6.87;100.00;99890.22;5113886;28;20102;-81
2023/04/24 04:34:23;;;;;;;47.28;20.50;;;;;;;6.86;100.00;99894.75;5095957;28;20058;-81
2023/04/24 04:36:48;;;;;;;39.87;18.60;;;;;;;6.85;100.00;99904.72;5078792;28;20532;-81
2023/04/24 04:39:14;;;;;;;43.85;19.42;;;;;;;6.87;100.00;99888.31;5078888;28;20430;-81
2023/04/24 04:41:40;;;;;;;33.08;17.75;;;;;;;6.88;100.00;99894.53;5079091;28;20047;-81
2023/04/24 04:44:08;;;;;;;37.95;17.85;;;;;;;6.88;100.00;99897.22;5097499;28;20032;-81
2023/04/24 04:46:34;;;;;;;42.83;18.77;;;;;;;6.85;100.00;99902.03;5083855;28;20047;-81
2023/04/24 04:49:01;;;;;;;41.60;18.67;;;;;;;6.87;100.00;99901.00;5082648;28;20035;-81
2023/04/24 04:51:27;;;;;;;42.28;18.08;;;;;;;6.85;100.00;99907.41;5117671;28;20026;-81
2023/04/24 04:53:52;;;;;;;40.92;17.65;;;;;;;6.87;100.00;99906.38;5099287;28;20031;-81
2023/04/24 04:56:18;;;;;;;43.92;18.20;;;;;;;6.87;100.00;99903.69;5099446;28;20039;-81
2023/04/24 04:58:43;;;;;;;44.53;19.53;;;;;;;6.88;100.00;99900.78;5099072;28;20035;-81
2023/04/24 05:01:09;;;;;;;42.67;16.70;;;;;;;6.89;100.00;99921.28;5065378;28;20073;-81
2023/04/24 05:03:34;;;;;;;26.00;13.27;;;;;;;6.94;100.00;99901.75;5099284;28;20028;-81
2023/04/24 05:05:59;;;;;;;37.33;16.08;;;;;;;6.90;100.00;99912.16;5118028;28;20424;-81
2023/04/24 05:08:25;;;;;;;36.70;15.77;;;;;;;6.93;100.00;99913.63;5081719;28;20052;-81
2023/04/24 05:10:50;;;;;;;38.73;17.03;;;;;;;6.92;100.00;99917.34;5117452;28;20068;-81
2023/04/24 05:13:16;;;;;;;39.17;14.63;;;;;;;6.93;100.00;99919.81;5117201;28;20472;-80
2023/04/24 05:15:41;;;;;;;35.50;15.30;;;;;;;6.93;100.00;99910.91;5117208;28;20027;-81
2023/04/24 05:18:06;;;;;;;33.05;13.20;;;;;;;6.93;100.00;99910.91;5065621;28;20077;-80
2023/04/24 05:20:32;;;;;;;35.43;14.60;;;;;;;6.93;100.00;99910.91;5081971;28;20114;-80
2023/04/24 05:22:57;;;;;;;29.33;12.30;;;;;;;6.94;100.00;99917.94;5116684;28;20060;-80
2023/04/24 05:25:23;;;;;;;29.13;12.03;;;;;;;6.94;100.00;99916.09;5116848;28;20102;-79
2023/04/24 05:27:48;;;;;;;25.33;10.17;;;;;;;6.91;100.00;99916.53;5081574;28;20081;-80
2023/04/24 05:30:14;;;;;;;16.83;7.70;;;;;;;6.89;100.00;99932.06;5081639;28;20130;-80
2023/04/24 05:32:39;;;;;;;16.07;6.37;;;;;;;6.90;100.00;99947.22;5081561;28;20067;-80
2023/04/24 05:35:05;;;;;;;16.60;6.40;;;;;;;6.85;100.00;99939.78;5116824;28;20105;-81
2023/04/24 05:37:30;;;;;;;12.65;5.47;;;;;;;6.89;100.00;99964.44;5098403;28;20529;-81
2023/04/24 05:39:56;;;;;;;15.33;5.70;;;;;;;6.87;100.00;99941.44;5116661;28;20035;-81
2023/04/24 05:42:21;;;;;;;10.00;4.70;;;;;;;6.84;100.00;99967.78;5081423;28;20439;-80
2023/04/24 05:44:47;;;;;;;8.52;4.53;;;;;;;6.84;100.00;99961.56;5081725;28;20273;-80
2023/04/24 05:47:12;;;;;;;8.23;4.03;;;;;;;6.79;100.00;99956.81;5098562;28;20467;-81
2023/04/24 05:49:37;;;;;;;9.90;3.90;;;;;;;6.75;100.00;99969.06;5064848;28;20030;-81
2023/04/24 05:52:08;;;;;;;8.30;3.83;;;;;;;6.75;100.00;99970.94;5064616;28;20387;-81
2023/04/24 05:54:34;;;;;;;8.80;4.25;;;;;;;6.76;100.00;99970.72;5098916;28;20027;-80
2023/04/24 05:57:01;;;;;;;7.43;4.05;;;;;;;6.73;100.00;99978.38;5098146;28;20173;-81
2023/04/24 05:59:26;;;;;;;13.23;5.77;;;;;;;6.73;100.00;100000.81;5098492;28;20172;-81
2023/04/24 06:01:52;;;;;;;10.55;5.60;;;;;;;6.74;100.00;99982.75;5081430;28;20031;-81
2023/04/24 06:04:17;;;;;;;20.70;5.40;;;;;;;6.74;100.00;99980.88;5098314;28;20039;-81
2023/04/24 06:06:42;;;;;;;20.33;6.73;;;;;;;6.74;100.00;99988.97;5064335;28;20398;-81
2023/04/24 06:09:08;;;;;;;17.50;7.50;;;;;;;6.75;100.00;100001.41;5097594;28;20055;-80
2023/04/24 06:11:33;;;;;;;21.27;10.67;;;;;;;6.75;100.00;99985.22;5080910;28;20038;-80
2023/04/24 06:13:59;;;;;;;28.30;11.02;;;;;;;6.76;100.00;100011.16;5097422;28;20040;-81
2023/04/24 06:16:24;;;;;;;25.40;10.53;;;;;;;6.77;100.00;99996.63;5097533;28;20490;-81
2023/04/24 06:18:50;;;;;;;29.67;11.60;;;;;;;6.78;100.00;100005.56;5080663;28;20131;-81
2023/04/24 06:21:16;;;;;;;30.73;11.13;;;;;;;6.75;100.00;100009.50;5097711;28;20080;-80
2023/04/24 06:23:41;;;;;;;25.63;11.85;;;;;;;6.75;100.00;100008.69;5115665;28;20515;-81
2023/04/24 06:26:07;;;;;;;29.52;12.98;;;;;;;6.78;100.00;100019.84;5097274;28;20135;-81
2023/04/24 06:28:32;;;;;;;34.00;14.10;;;;;;;6.77;100.00;100036.25;5080207;28;20130;-81
2023/04/24 06:30:57;;;;;;;36.77;14.47;;;;;;;6.79;100.00;100020.66;5097015;28;20126;-81
2023/04/24 06:33:23;;;;;;;38.63;14.23;;;;;;;6.78;100.00;100062.19;5080082;28;20041;-81
2023/04/24 06:35:48;;;;;;;43.07;16.93;;;;;;;6.79;100.00;100074.59;5115547;28;20028;-80
2023/04/24 06:38:14;;;;;;;36.38;16.02;;;;;;;6.80;100.00;100077.09;5097673;28;20028;-80
2023/04/24 06:40:40;;;;;;;39.40;16.35;;;;;;;6.78;100.00;100070.25;5115124;28;20535;-80
2023/04/24 06:43:06;;;;;;;41.13;14.73;;;;;;;6.76;100.00;100085.81;5097345;28;20123;-80
2023/04/24 06:45:31;;;;;;;43.88;17.60;;;;;;;6.75;100.00;100084.16;5080486;28;20028;-80
2023/04/24 06:47:57;;;;;;;53.30;17.80;;;;;;;6.75;100.00;100079.59;5080179;28;20475;-80
2023/04/24 06:50:22;;;;;;;40.20;14.85;;;;;;;6.73;100.00;100095.16;5080026;28;20070;-80
2023/04/24 06:52:48;;;;;;;56.43;20.87;;;;;;;6.70;100.00;100145.94;5096545;28;20035;-80
2023/04/24 06:55:16;;;;;;;59.10;19.17;;;;;;;6.71;100.00;100123.34;5114532;28;20046;-80
2023/04/24 06:57:42;;;;;;;59.95;18.15;;;;;;;6.71;100.00;100123.34;5096355;28;20028;-80
2023/04/24 07:00:09;;;;;;;59.25;19.65;;;;;;;6.71;100.00;100140.34;5080061;28;20130;-80
2023/04/24 07:02:34;;;;;;;66.88;20.60;;;;;;;6.67;100.00;100163.38;5079924;28;20038;-81
2023/04/24 07:05:01;;;;;;;72.73;21.57;;;;;;;6.61;100.00;100162.31;5097014;28;20024;-80
2023/04/24 07:07:27;;;;;;;68.13;22.00;;;;;;;6.60;100.00;100157.13;5114230;28;20024;-79
2023/04/24 07:09:53;;;;;;;65.35;23.65;;;;;;;6.58;100.00;100173.50;5079611;28;20051;-80
2023/04/24 07:12:21;;;;;;;63.90;20.35;;;;;;;6.58;100.00;100168.13;5079850;28;20395;-80
2023/04/24 07:14:47;;;;;;;60.58;18.77;;;;;;;6.60;100.00;100174.16;5114776;28;20066;-80
2023/04/24 07:17:13;;;;;;;69.30;22.98;;;;;;;6.63;100.00;100186.41;5096587;28;20027;-81
2023/04/24 07:19:38;;;;;;;72.57;19.35;;;;;;;6.67;100.00;100201.09;5096634;28;20031;-79
2023/04/24 07:22:04;;;;;;;67.73;20.23;;;;;;;6.70;100.00;100206.09;5080150;28;20139;-79
2023/04/24 07:24:32;;;;;;;72.40;20.40;;;;;;;6.70;100.00;100200.69;5096866;28;20028;-79
2023/04/24 07:26:57;;;;;;;70.00;19.17;;;;;;;6.76;100.00;100223.31;5079730;28;20032;-79
2023/04/24 07:29:23;;;;;;;64.03;19.70;;;;;;;6.77;100.00;100219.59;5096920;28;20096;-79
2023/04/24 07:31:48;;;;;;;68.88;19.50;;;;;;;6.78;100.00;100227.47;5079441;28;20422;-79
2023/04/24 07:34:14;;;;;;;59.83;18.37;;;;;;;6.76;100.00;100234.94;5096238;28;20074;-81
2023/04/24 07:36:41;;;;;;;62.43;18.57;;;;;;;6.77;100.00;100255.47;5096404;28;20039;-80
2023/04/24 07:39:08;;;;;;;57.22;16.80;;;;;;;6.70;100.00;100254.63;5114287;28;20035;-81
2023/04/24 07:41:33;;;;;;;52.42;16.30;;;;;;;6.66;100.00;100297.34;5114452;28;20027;-80
2023/04/24 07:43:59;;;;;;;43.15;12.07;;;;;;;6.56;100.00;100256.47;5096096;28;20123;-80
2023/04/24 07:46:24;;;;;;;51.63;13.07;;;;;;;6.57;100.00;100279.69;5096837;28;20175;-80
2023/04/24 07:48:50;;;;;;;51.90;12.77;;;;;;;6.60;100.00;100278.44;5062223;28;20394;-82
2023/04/24 07:51:16;;;;;;;44.80;11.75;;;;;;;6.60;100.00;100300.84;5096345;28;20142;-81
2023/04/24 07:53:42;;;;;;;45.87;12.07;;;;;;;6.58;100.00;100300.19;5079022;28;20054;-81
2023/04/24 07:56:08;;;;;;;48.53;12.00;;;;;;;6.57;100.00;100306.66;5096020;28;20042;-80
2023/04/24 07:58:34;;;;;;;51.63;12.13;;;;;;;6.57;100.00;100300.41;5079075;28;20028;-80
2023/04/24 08:00:59;;;;;;;46.05;11.27;;;;;;;6.62;100.00;100306.84;5095707;28;20495;-82
2023/04/24 08:03:24;;;;;;;56.80;12.80;;;;;;;6.65;100.00;100314.53;5062216;28;20031;-81
2023/04/24 08:05:50;;;;;;;49.00;12.73;;;;;;;6.70;100.00;100329.28;5095666;28;20038;-81
2023/04/24 08:08:16;;;;;;;50.20;11.43;;;;;;;6.72;100.00;100329.91;5078737;28;20028;-80
2023/04/24 08:10:42;;;;;;;52.28;12.95;;;;;;;6.73;100.00;100326.19;5095700;28;20027;-80
2023/04/24 08:13:07;;;;;;;44.70;14.00;;;;;;;6.77;100.00;100330.13;5062220;28;20067;-80
2023/04/24 08:15:32;;;;;;;62.77;15.43;;;;;;;6.82;100.00;100336.59;5078993;28;20410;-80
2023/04/24 08:17:58;;;;;;;63.65;16.73;;;;;;;6.91;100.00;100339.94;5115195;28;20035;-80
2023/04/24 08:20:23;;;;;;;49.83;13.57;;;;;;;6.92;100.00;100338.06;5100002;28;20023;-80
2023/04/24 08:22:49;;;;;;;56.40;17.37;;;;;;;6.89;100.00;100363.56;5083889;28;20076;-80
2023/04/24 08:25:14;;;;;;;54.87;15.57;;;;;;;6.88;100.00;100361.06;5099906;28;20450;-80
2023/04/24 08:27:40;;;;;;;59.20;14.50;;;;;;;6.88;100.00;100352.97;5083263;28;20468;-80
2023/04/24 08:30:06;;;;;;;57.65;13.15;;;;;;;6.88;100.00;100366.44;5082769;28;20057;-80
2023/04/24 08:32:32;;;;;;;51.47;13.27;;;;;;;6.90;100.00;100377.88;5117875;28;20464;-80
2023/04/24 08:34:58;;;;;;;55.33;14.65;;;;;;;6.93;100.00;100385.56;5099396;28;20042;-80
2023/04/24 08:37:26;;;;;;;53.72;12.65;;;;;;;6.96;100.00;100387.88;5099577;28;20020;-80
2023/04/24 08:39:52;;;;;;;53.35;12.52;;;;;;;6.94;100.00;100379.97;5117800;28;20114;-80
2023/04/24 08:42:19;;;;;;;52.77;12.13;;;;;;;6.93;100.00;100391.78;5099367;28;20484;-80
2023/04/24 08:44:45;;;;;;;50.90;11.32;;;;;;;7.01;100.00;100391.63;5117961;28;20261;-80
2023/04/24 08:47:11;;;;;;;46.42;12.13;;;;;;;7.10;100.00;100400.38;5099317;28;20028;-80
2023/04/24 08:49:38;;;;;;;48.40;11.40;;;;;;;7.17;100.00;100414.66;5099375;28;20070;-80
2023/04/24 08:52:05;;;;;;;50.57;11.30;;;;;;;7.25;100.00;100421.78;5117605;28;20048;-80
2023/04/24 08:54:33;;;;;;;39.80;10.98;;;;;;;7.35;100.00;100422.22;5099030;28;20023;-80
2023/04/24 08:57:06;;;;;;;45.35;10.80;;;;;;;7.34;100.00;100436.72;5082586;28;20036;-80
2023/04/24 08:59:31;;;;;;;43.22;9.10;;;;;;;7.14;100.00;100431.28;5099976;28;20038;-81
2023/04/24 09:01:57;;;;;;;31.73;8.60;;;;;;;7.01;100.00;100436.63;5099465;28;20036;-80
2023/04/24 09:04:26;;;;;;;40.35;7.97;;;;;;;6.90;100.00;100437.22;5099182;28;20110;-80
2023/04/24 09:06:55;;;;;;;26.83;6.73;;;;;;;6.82;100.00;100440.91;5117328;28;20032;-81
2023/04/24 09:09:22;;;;;;;32.70;5.97;;;;;;;6.67;100.00;100468.84;5098843;28;20077;-80
2023/04/24 09:11:49;;;;;;;28.88;6.35;;;;;;;6.61;100.00;100450.75;5098964;28;20062;-80
2023/04/24 09:14:16;;;;;;;28.58;5.47;;;;;;;6.54;100.00;100454.44;5117426;28;20032;-80
2023/04/24 09:16:42;;;;;;;30.30;5.97;;;;;;;6.68;100.00;100461.59;5081980;28;20062;-80
2023/04/24 09:19:07;;;;;;;29.63;6.87;;;;;;;6.90;100.00;100470.41;5081895;28;20130;-80
2023/04/24 09:21:34;;;;;;;26.50;6.80;;;;;;;7.05;100.00;100456.78;5098017;28;20059;-80
2023/04/24 09:24:02;;;;;;;28.10;7.00;;;;;;;7.22;100.00;100468.06;5098565;28;20065;-80
2023/04/24 09:26:32;;;;;;;27.90;5.75;;;;;;;7.18;100.00;100485.69;5082396;28;20071;-80
2023/04/24 09:28:58;;;;;;;28.55;5.25;;;;;;;7.01;100.00;100491.44;5116469;28;20027;-80
2023/04/24 09:31:27;;;;;;;26.52;4.15;;;;;;;6.87;100.00;100497.78;5098625;28;20103;-80
2023/04/24 09:34:01;;;;;;;18.27;4.77;;;;;;;6.84;100.00;100492.78;5116775;28;20059;-80
2023/04/24 09:36:34;;;;;;;17.50;4.78;;;;;;;6.79;100.00;100495.22;5099622;28;20386;-80
2023/04/24 09:39:05;;;;;;;16.80;4.22;;;;;;;6.75;100.00;100511.00;5098616;28;20028;-79
2023/04/24 09:41:32;;;;;;;23.02;4.38;;;;;;;6.77;100.00;100521.59;5117222;28;20115;-80
2023/04/24 09:44:11;;;;;;;20.08;4.05;;;;;;;6.74;100.00;100520.09;5098357;28;20558;-80
2023/04/24 09:46:37;;;;;;;15.33;3.20;;;;;;;6.75;100.00;100515.56;5116874;28;20046;-80
2023/04/24 09:49:12;;;;;;;10.18;2.67;;;;;;;6.83;100.00;100551.25;5098142;28;20036;-80
2023/04/24 09:51:38;;;;;;;12.23;2.15;;;;;;;6.95;100.00;100548.03;5098136;28;20027;-80
2023/04/24 09:54:10;;;;;;;14.93;2.85;;;;;;;7.26;100.00;100528.66;5098244;28;20472;-80
2023/04/24 09:56:36;;;;;;;10.60;2.83;;;;;;;7.49;100.00;100551.81;5116542;28;20080;-80
2023/04/24 09:59:08;;;;;;;13.83;2.80;;;;;;;7.75;100.00;100558.31;5081071;28;20031;-79
2023/04/24 10:01:33;;;;;;;13.10;2.90;;;;;;;8.00;100.00;100539.66;5097980;28;20027;-80
2023/04/24 10:03:59;;;;;;;12.13;2.53;;;;;;;8.23;100.00;100542.78;5097824;28;20035;-80
2023/04/24 10:06:34;;;;;;;13.68;2.30;;;;;;;8.42;100.00;100548.44;5097628;28;20024;-80
2023/04/24 10:09:00;;;;;;;12.23;2.38;;;;;;;8.51;100.00;100554.50;5097333;28;20058;-80
2023/04/24 10:11:30;;;;;;;11.33;2.80;;;;;;;8.60;100.00;100551.34;5097747;28;20036;-80
2023/04/24 10:13:56;;;;;;;7.90;2.00;;;;;;;8.67;100.00;100545.94;5116358;28;20066;-79
2023/04/24 10:16:23;;;;;;;10.90;2.13;;;;;;;8.64;100.00;100556.34;5080840;28;20040;-80
2023/04/24 10:18:48;;;;;;;13.05;2.38;;;;;;;8.40;100.00;100551.34;5081000;28;20437;-80
2023/04/24 10:21:15;;;;;;;7.87;1.90;;;;;;;8.23;100.00;100545.50;5116225;28;20031;-80
2023/04/24 10:23:41;;;;;;;10.60;1.98;;;;;;;8.01;100.00;100561.06;5097521;28;20538;-80
2023/04/24 10:26:09;;;;;;;20.70;2.17;;;;;;;7.87;100.00;100559.41;5097501;28;20081;-80
2023/04/24 10:28:36;;;;;;;7.30;1.20;;;;;;;7.76;100.00;100568.91;5097382;28;20494;-80
2023/04/24 10:31:02;;;;;;;4.03;1.00;;;;;;;7.58;100.00;100572.19;5097333;28;20023;-80
2023/04/24 10:33:30;;;;;;;11.52;1.10;;;;;;;7.49;100.00;100571.53;5097031;28;20035;-83
2023/04/24 10:35:58;;;;;;;4.82;0.82;;;;;;;7.48;100.00;100579.84;5096866;28;20027;-80
2023/04/24 10:38:26;;;;;;;4.20;0.70;;;;;;;7.54;100.00;100576.31;5097081;28;20464;-80
2023/04/24 10:40:58;;;;;;;4.10;0.80;;;;;;;7.79;100.00;100589.28;5096373;28;20169;-81
2023/04/24 10:43:23;;;;;;;6.00;0.80;;;;;;;7.98;100.00;100585.81;5097131;28;20055;-80
2023/04/24 10:46:05;;;;;;;5.73;1.43;;;;;;;8.31;100.00;100586.88;5096776;28;20089;-80
2023/04/24 10:48:32;;;;;;;3.33;0.63;;;;;;;8.58;100.00;100593.19;5115124;28;20034;-80
2023/04/24 10:50:57;;;;;;;2.35;0.60;;;;;;;8.74;100.00;100589.19;5096697;28;20076;-81
2023/04/24 10:53:26;;;;;;;5.50;0.87;;;;;;;8.84;100.00;100621.25;5096930;28;20032;-80
2023/04/24 10:55:59;;;;;;;3.72;0.85;;;;;;;8.94;100.00;100591.88;5114969;28;20498;-80
2023/04/24 10:58:35;;;;;;;10.20;1.45;;;;;;;8.99;100.00;100593.94;5097071;28;20429;-81
2023/04/24 11:01:00;;;;;;;5.60;0.80;;;;;;;8.86;100.00;100592.94;5097035;28;20165;-80
2023/04/24 11:03:27;;;;;;;6.70;0.80;;;;;;;8.78;100.00;100587.75;5097154;28;20035;-81
2023/04/24 11:06:08;;;;;;;7.50;1.42;;;;;;;8.71;100.00;100587.75;5096673;28;20460;-80
2023/04/24 11:08:44;;;;;;;4.00;0.68;;;;;;;8.60;100.00;100600.03;5114753;28;20482;-81
2023/04/24 11:11:14;;;;;;;2.63;0.97;;;;;;;8.46;100.00;100606.50;5097423;28;20530;-81
2023/04/24 11:13:58;;;;;;;5.03;0.80;;;;;;;8.43;100.00;100621.22;5096900;28;20030;-80